Time;durP1;ratioP1;P1;durP2;ratioP2;P2;SDS_P1;SDS_P2;PMS_P1;PMS_P2;Temp;Humidity;BMP_temperature;BMP_pressure;BME280_temperature;BME280_humidity;BME280_pressure;Samples;Min_cycle;Max_cycle;Signal;HPM_P1;HPM_P2
2022/05/17 00:02:14;;;;;;;3.87;3.47;;;15.90;99.90;;;;;;5030132;28;20618;-54
2022/05/17 00:04:41;;;;;;;5.70;2.27;;;15.90;99.90;;;;;;5030386;28;20198;-54
2022/05/17 00:07:08;;;;;;;4.57;3.10;;;15.90;99.90;;;;;;5031339;28;20299;-54
2022/05/17 00:09:35;;;;;;;2.90;2.67;;;15.90;99.90;;;;;;5026332;28;20201;-54
2022/05/17 00:12:03;;;;;;;3.20;2.77;;;15.90;99.90;;;;;;5031094;28;20639;-52
2022/05/17 00:14:31;;;;;;;4.00;3.53;;;15.80;99.90;;;;;;5032204;28;20198;-54
2022/05/17 00:16:59;;;;;;;4.83;2.93;;;15.80;99.90;;;;;;5031240;28;20219;-54
2022/05/17 00:19:28;;;;;;;7.20;3.90;;;15.80;99.90;;;;;;5030480;28;20267;-54
2022/05/17 00:21:55;;;;;;;2.83;2.43;;;15.80;99.90;;;;;;5030832;28;20207;-54
2022/05/17 00:24:24;;;;;;;2.57;2.37;;;15.80;99.90;;;;;;5030894;28;20206;-54
2022/05/17 00:26:53;;;;;;;4.13;2.47;;;15.90;99.90;;;;;;5029129;28;20214;-54
2022/05/17 00:29:20;;;;;;;3.47;2.97;;;15.90;99.90;;;;;;5027848;28;20198;-54
2022/05/17 00:31:48;;;;;;;4.47;2.60;;;15.90;99.90;;;;;;5028445;28;20231;-54
2022/05/17 00:34:17;;;;;;;3.27;2.17;;;15.90;99.90;;;;;;5031177;28;20218;-54
2022/05/17 00:36:45;;;;;;;2.13;2.07;;;15.90;99.90;;;;;;5030865;28;20222;-54
2022/05/17 00:39:12;;;;;;;2.43;2.23;;;15.80;99.90;;;;;;5027937;28;20297;-54
2022/05/17 00:41:39;;;;;;;2.43;2.23;;;15.80;99.90;;;;;;5029450;28;20203;-54
2022/05/17 00:47:09;;;;;;;2.63;2.10;;;15.80;99.90;;;;;;4942599;29;20317;-54
2022/05/17 00:49:40;;;;;;;3.33;2.70;;;15.80;99.90;;;;;;4948156;28;20205;-54
2022/05/17 00:52:13;;;;;;;3.20;2.40;;;15.80;99.90;;;;;;4988812;28;20660;-54
2022/05/17 00:54:42;;;;;;;2.87;2.47;;;15.80;99.90;;;;;;5031238;28;20202;-54
2022/05/17 00:57:19;;;;;;;2.10;1.93;;;15.70;99.90;;;;;;5028483;28;20599;-52
2022/05/17 00:59:46;;;;;;;3.67;2.40;;;15.80;99.90;;;;;;5026503;28;20205;-54
2022/05/17 01:02:13;;;;;;;2.80;2.20;;;15.80;99.90;;;;;;5029271;28;20641;-55
2022/05/17 01:04:41;;;;;;;3.10;1.57;;;15.80;99.90;;;;;;5030354;28;20202;-52
2022/05/17 01:07:14;;;;;;;3.77;2.00;;;15.80;99.90;;;;;;5029202;28;20708;-51
2022/05/17 01:09:41;;;;;;;2.07;2.07;;;15.80;99.90;;;;;;5025428;28;20892;-54
2022/05/17 01:12:09;;;;;;;2.17;2.07;;;15.80;99.90;;;;;;5028635;28;20688;-54
2022/05/17 01:17:22;;;;;;;1.83;1.73;;;15.70;99.90;;;;;;5024104;28;20213;-54
2022/05/17 01:19:49;;;;;;;1.70;1.60;;;15.60;99.90;;;;;;5030051;28;20276;-54
2022/05/17 01:22:18;;;;;;;2.60;2.33;;;15.60;99.90;;;;;;5030858;28;20203;-54
2022/05/17 01:24:45;;;;;;;3.33;2.10;;;15.60;99.90;;;;;;5027406;28;20203;-52
2022/05/17 01:27:17;;;;;;;3.60;2.10;;;15.50;99.90;;;;;;5027924;28;20213;-54
2022/05/17 01:29:46;;;;;;;3.97;2.17;;;15.50;99.90;;;;;;5029549;28;20210;-54
2022/05/17 01:32:15;;;;;;;2.27;2.13;;;15.50;99.90;;;;;;5023516;28;20290;-54
2022/05/17 01:34:43;;;;;;;3.10;2.30;;;15.50;99.90;;;;;;5028385;28;20208;-54
2022/05/17 01:37:11;;;;;;;8.27;3.13;;;15.40;99.90;;;;;;5018795;28;20293;-54
2022/05/17 01:39:40;;;;;;;2.97;2.00;;;15.40;99.90;;;;;;5029600;28;20206;-54
2022/05/17 01:42:08;;;;;;;2.37;1.90;;;15.40;99.90;;;;;;5028850;28;20205;-52
2022/05/17 01:44:35;;;;;;;3.20;2.03;;;15.30;99.90;;;;;;5027458;28;20198;-54
2022/05/17 01:47:02;;;;;;;3.93;2.07;;;15.30;99.90;;;;;;5028006;28;20223;-54
2022/05/17 01:49:29;;;;;;;2.63;1.93;;;15.30;99.90;;;;;;5028964;28;20248;-51
2022/05/17 01:51:58;;;;;;;2.93;2.23;;;15.30;99.90;;;;;;5029396;28;20203;-54
2022/05/17 01:54:25;;;;;;;6.50;2.27;;;15.30;99.90;;;;;;5030177;28;20305;-54
2022/05/17 01:56:53;;;;;;;2.70;1.97;;;15.40;99.90;;;;;;5026607;28;20284;-54
2022/05/17 01:59:20;;;;;;;1.80;1.70;;;15.40;99.90;;;;;;5030369;28;20202;-54
2022/05/17 02:01:47;;;;;;;3.10;2.33;;;15.40;99.90;;;;;;5028713;28;20767;-54
2022/05/17 02:04:14;;;;;;;5.10;1.70;;;15.30;99.90;;;;;;5026351;28;20203;-54
2022/05/17 02:06:42;;;;;;;1.67;1.63;;;15.30;99.90;;;;;;5027325;28;20222;-54
2022/05/17 02:09:09;;;;;;;1.90;1.80;;;15.30;99.90;;;;;;5029976;28;20293;-54
2022/05/17 02:11:36;;;;;;;4.57;1.53;;;15.30;99.90;;;;;;5032836;28;20202;-54
2022/05/17 02:14:05;;;;;;;2.63;2.00;;;15.20;99.90;;;;;;5033052;28;20237;-54
2022/05/17 02:16:35;;;;;;;2.40;1.50;;;15.20;99.90;;;;;;5032859;28;20223;-54
2022/05/17 02:19:02;;;;;;;2.97;2.03;;;15.20;99.90;;;;;;5030416;28;20276;-54
2022/05/17 02:21:29;;;;;;;1.90;1.83;;;15.20;99.90;;;;;;5031250;28;20248;-52
2022/05/17 02:23:56;;;;;;;3.93;2.10;;;15.20;99.90;;;;;;5030993;28;20241;-52
2022/05/17 02:26:22;;;;;;;2.67;2.27;;;15.10;99.90;;;;;;5029668;28;20276;-54
2022/05/17 02:28:49;;;;;;;2.63;1.90;;;15.10;99.90;;;;;;5031246;28;20222;-54
2022/05/17 02:31:18;;;;;;;2.50;2.30;;;15.10;99.90;;;;;;5032932;28;20210;-54
2022/05/17 02:33:45;;;;;;;5.10;2.40;;;15.10;99.90;;;;;;5030952;28;20699;-54
2022/05/17 02:36:12;;;;;;;4.80;1.77;;;15.10;99.90;;;;;;5032007;28;20218;-54
2022/05/17 02:38:40;;;;;;;3.00;1.90;;;15.10;99.90;;;;;;5031374;28;20206;-54
2022/05/17 02:41:07;;;;;;;2.10;2.00;;;15.10;99.90;;;;;;5029066;28;20213;-52
2022/05/17 02:43:34;;;;;;;2.43;2.23;;;15.10;99.90;;;;;;5031991;28;20256;-52
2022/05/17 02:46:01;;;;;;;2.73;2.53;;;15.10;99.90;;;;;;5030750;28;20296;-52
2022/05/17 02:48:29;;;;;;;4.00;2.93;;;15.10;99.90;;;;;;5031738;28;20206;-52
2022/05/17 02:50:56;;;;;;;2.60;2.40;;;15.10;99.90;;;;;;5032565;28;20344;-54
2022/05/17 02:53:23;;;;;;;6.07;2.57;;;15.20;99.90;;;;;;5031207;28;20219;-52
2022/05/17 02:55:50;;;;;;;4.00;2.60;;;15.30;99.90;;;;;;5031882;28;20227;-54
2022/05/17 02:58:17;;;;;;;2.33;2.13;;;15.20;99.90;;;;;;5029752;28;20222;-52
2022/05/17 03:00:44;;;;;;;3.63;2.77;;;15.20;99.90;;;;;;5032367;28;20624;-52
2022/05/17 03:03:11;;;;;;;5.00;1.87;;;15.10;99.90;;;;;;5032523;28;20327;-52
2022/05/17 03:05:39;;;;;;;3.70;2.17;;;15.10;99.90;;;;;;5032327;28;20281;-54
2022/05/17 03:08:07;;;;;;;2.10;1.50;;;15.10;99.90;;;;;;5026924;28;20214;-54
2022/05/17 03:10:34;;;;;;;3.60;1.60;;;15.10;99.90;;;;;;5031123;28;20206;-53
2022/05/17 03:13:01;;;;;;;5.47;2.00;;;15.10;99.90;;;;;;5031168;28;20230;-52
2022/05/17 03:15:28;;;;;;;2.60;2.17;;;15.10;99.90;;;;;;5031858;28;20206;-52
2022/05/17 03:17:55;;;;;;;2.33;1.83;;;15.10;99.90;;;;;;5031354;28;20203;-52
2022/05/17 03:20:22;;;;;;;3.63;1.83;;;15.00;99.90;;;;;;5030915;28;20256;-54
2022/05/17 03:22:50;;;;;;;3.60;2.00;;;15.00;99.90;;;;;;5029143;28;20304;-54
2022/05/17 03:25:17;;;;;;;3.80;2.40;;;15.00;99.90;;;;;;5031141;28;20199;-54
2022/05/17 03:27:44;;;;;;;2.73;2.50;;;15.00;99.90;;;;;;5027317;28;20203;-54
2022/05/17 03:30:12;;;;;;;1.93;1.83;;;15.00;99.90;;;;;;5026453;28;20558;-54
2022/05/17 03:32:39;;;;;;;3.97;1.80;;;14.90;99.90;;;;;;5029672;28;20206;-54
2022/05/17 03:35:08;;;;;;;6.10;2.17;;;14.90;99.90;;;;;;5030717;28;20225;-54
2022/05/17 03:37:35;;;;;;;2.43;2.03;;;14.90;99.90;;;;;;5028883;28;20214;-52
2022/05/17 03:40:05;;;;;;;3.47;2.10;;;14.90;99.90;;;;;;5028457;28;20337;-52
2022/05/17 03:42:32;;;;;;;4.23;2.40;;;14.90;99.90;;;;;;5028179;28;20199;-51
2022/05/17 03:44:59;;;;;;;4.50;2.20;;;14.90;99.90;;;;;;5031459;28;20252;-52
2022/05/17 03:47:26;;;;;;;4.77;2.30;;;14.90;99.90;;;;;;5028159;28;20218;-52
2022/05/17 03:49:53;;;;;;;3.07;2.77;;;14.90;99.90;;;;;;5027732;28;20293;-52
2022/05/17 03:52:25;;;;;;;2.30;2.10;;;14.90;99.90;;;;;;5030544;28;20257;-54
2022/05/17 03:54:55;;;;;;;1.83;1.73;;;14.90;99.90;;;;;;5028126;28;20276;-54
2022/05/17 03:57:24;;;;;;;5.57;2.27;;;14.90;99.90;;;;;;5052408;23;20226;-48
2022/05/17 03:59:51;;;;;;;1.83;1.77;;;14.80;99.90;;;;;;5031527;28;20692;-48
2022/05/17 04:02:19;;;;;;;3.23;2.20;;;14.80;99.90;;;;;;5030441;28;20210;-48
2022/05/17 04:04:46;;;;;;;3.17;2.77;;;14.80;99.90;;;;;;5031748;28;20261;-47
2022/05/17 04:07:13;;;;;;;2.90;2.60;;;14.80;99.90;;;;;;5029009;28;20265;-48
2022/05/17 04:09:40;;;;;;;3.00;2.80;;;14.80;99.90;;;;;;5031684;28;20248;-48
2022/05/17 04:12:08;;;;;;;2.83;2.53;;;14.80;99.90;;;;;;5029650;28;20250;-48
2022/05/17 04:14:37;;;;;;;4.53;2.83;;;14.90;99.90;;;;;;5028089;28;20312;-48
2022/05/17 04:17:04;;;;;;;2.40;2.20;;;14.90;99.90;;;;;;5027684;28;20250;-48
2022/05/17 04:19:31;;;;;;;2.80;2.60;;;14.90;99.90;;;;;;5031566;28;20206;-48
2022/05/17 04:21:59;;;;;;;8.47;3.13;;;14.90;99.90;;;;;;5030152;28;20206;-49
2022/05/17 04:24:26;;;;;;;2.20;2.10;;;14.90;99.90;;;;;;5031647;28;20289;-48
2022/05/17 04:26:53;;;;;;;2.80;2.60;;;15.00;99.90;;;;;;5026427;28;20218;-48
2022/05/17 04:29:20;;;;;;;3.37;3.10;;;15.00;99.90;;;;;;5030668;28;20205;-48
2022/05/17 04:31:51;;;;;;;5.70;3.40;;;15.10;99.90;;;;;;5030481;28;20256;-48
2022/05/17 04:34:18;;;;;;;3.37;2.67;;;15.20;99.90;;;;;;5030906;28;20847;-49
2022/05/17 04:36:46;;;;;;;3.20;3.00;;;15.30;99.90;;;;;;5027120;28;20218;-48
2022/05/17 04:39:13;;;;;;;3.13;2.90;;;15.40;99.90;;;;;;5025718;28;20205;-48
2022/05/17 04:41:40;;;;;;;3.20;2.70;;;15.50;99.90;;;;;;5030782;28;20202;-48
2022/05/17 04:44:07;;;;;;;4.00;2.67;;;15.60;99.90;;;;;;5031901;28;20253;-48
2022/05/17 04:46:34;;;;;;;3.07;2.10;;;15.70;99.90;;;;;;5029688;28;20787;-48
2022/05/17 04:49:03;;;;;;;4.23;2.70;;;15.70;99.90;;;;;;5031917;28;20570;-48
2022/05/17 04:51:32;;;;;;;2.77;2.50;;;15.60;99.90;;;;;;5031684;28;20206;-48
2022/05/17 04:53:59;;;;;;;2.33;2.10;;;15.50;99.90;;;;;;5012202;28;20258;-48
2022/05/17 04:56:26;;;;;;;4.27;3.20;;;15.50;99.90;;;;;;5021374;28;20699;-48
2022/05/17 04:58:53;;;;;;;7.40;2.10;;;15.80;99.90;;;;;;5030886;28;20202;-48
2022/05/17 05:01:21;;;;;;;4.90;3.07;;;16.50;99.90;;;;;;5030624;28;20203;-48
2022/05/17 05:03:48;;;;;;;4.90;2.13;;;17.40;99.90;;;;;;5031780;28;20252;-49
2022/05/17 05:06:16;;;;;;;2.57;2.30;;;18.20;99.90;;;;;;5028181;28;20241;-49
2022/05/17 05:08:43;;;;;;;2.90;2.17;;;18.80;99.90;;;;;;5028537;28;20207;-48
2022/05/17 05:11:10;;;;;;;2.73;2.00;;;19.40;99.90;;;;;;5030076;28;20199;-49
2022/05/17 05:13:37;;;;;;;5.07;2.83;;;19.90;99.90;;;;;;5031419;28;20214;-49
2022/05/17 05:16:08;;;;;;;3.07;2.23;;;20.20;99.90;;;;;;5028274;28;20203;-49
2022/05/17 05:18:35;;;;;;;3.27;2.23;;;19.70;99.90;;;;;;5025905;28;20506;-49
2022/05/17 05:21:09;;;;;;;3.43;3.10;;;19.10;99.90;;;;;;5027115;28;20252;-48
2022/05/17 05:23:38;;;;;;;4.00;2.43;;;18.30;99.90;;;;;;5031302;28;20225;-48
2022/05/17 05:26:05;;;;;;;2.70;2.57;;;17.50;99.90;;;;;;5031309;28;20257;-48
2022/05/17 05:28:32;;;;;;;2.90;2.70;;;17.00;99.90;;;;;;5031709;28;20198;-48
2022/05/17 05:31:00;;;;;;;4.33;2.57;;;16.60;99.90;;;;;;5029749;28;20673;-48
2022/05/17 05:33:29;;;;;;;2.97;2.10;;;16.40;99.90;;;;;;5031150;28;20213;-48
2022/05/17 05:35:56;;;;;;;4.03;2.70;;;16.20;99.90;;;;;;5027544;28;20199;-47
2022/05/17 05:38:23;;;;;;;2.87;2.00;;;16.30;99.90;;;;;;5028897;28;20195;-49
2022/05/17 05:40:54;;;;;;;3.87;1.87;;;16.20;99.90;;;;;;5018559;28;20210;-48
2022/05/17 05:43:21;;;;;;;4.93;2.40;;;16.20;99.90;;;;;;5024700;28;20667;-48
2022/05/17 05:45:50;;;;;;;2.47;2.27;;;17.30;99.90;;;;;;5021172;28;20308;-48
2022/05/17 05:48:18;;;;;;;2.03;1.73;;;18.70;99.90;;;;;;5021395;28;20261;-48
2022/05/17 05:50:47;;;;;;;2.60;1.63;;;20.00;99.90;;;;;;5024660;28;20208;-49
2022/05/17 05:53:15;;;;;;;2.97;2.00;;;21.10;99.90;;;;;;5027099;28;20198;-48
2022/05/17 05:55:42;;;;;;;3.53;1.57;;;22.00;99.90;;;;;;5027599;28;20221;-48
2022/05/17 05:58:11;;;;;;;2.77;1.40;;;22.00;99.90;;;;;;5020494;28;20226;-49
2022/05/17 06:00:39;;;;;;;2.00;1.87;;;22.30;99.90;;;;;;5027199;28;20228;-49
2022/05/17 06:03:07;;;;;;;3.90;1.73;;;23.00;99.90;;;;;;5030733;28;20205;-49
2022/05/17 06:05:36;;;;;;;5.37;2.00;;;23.10;99.90;;;;;;5032807;28;20202;-49
2022/05/17 06:08:04;;;;;;;2.23;2.10;;;23.50;99.90;;;;;;5033346;28;20224;-49
2022/05/17 06:10:31;;;;;;;2.17;1.60;;;23.90;99.90;;;;;;5033717;28;20580;-49
2022/05/17 06:12:58;;;;;;;1.73;1.63;;;24.30;99.90;;;;;;5034424;28;20202;-49
2022/05/17 06:15:27;;;;;;;2.63;1.87;;;24.90;99.90;;;;;;5032067;28;20280;-49
2022/05/17 06:17:54;;;;;;;2.93;1.57;;;24.80;99.90;;;;;;5024399;28;20222;-49
2022/05/17 06:20:21;;;;;;;5.60;2.80;;;24.40;99.90;;;;;;5031821;28;20211;-49
2022/05/17 06:22:48;;;;;;;1.60;1.30;;;24.60;99.90;;;;;;5030151;28;20252;-49
2022/05/17 06:25:15;;;;;;;1.80;1.70;;;24.90;99.90;;;;;;5028202;28;20738;-49
2022/05/17 06:27:42;;;;;;;8.17;1.93;;;25.30;99.90;;;;;;5024917;28;20223;-49
2022/05/17 06:30:11;;;;;;;1.60;1.50;;;25.50;99.90;;;;;;5033939;28;20668;-49
2022/05/17 06:32:39;;;;;;;2.67;2.30;;;25.60;99.90;;;;;;5030253;28;20195;-49
2022/05/17 06:35:07;;;;;;;2.03;1.97;;;25.90;99.90;;;;;;5033410;28;20740;-49
2022/05/17 06:37:35;;;;;;;4.07;1.50;;;25.70;99.90;;;;;;5031541;28;20223;-49
2022/05/17 06:40:02;;;;;;;5.43;1.77;;;25.60;99.90;;;;;;5030031;28;20252;-49
2022/05/17 06:42:29;;;;;;;4.33;1.93;;;26.10;99.90;;;;;;5032550;28;20206;-50
2022/05/17 06:44:57;;;;;;;2.90;1.90;;;25.70;99.90;;;;;;5024695;28;20253;-50
2022/05/17 06:47:25;;;;;;;2.13;2.03;;;25.20;99.90;;;;;;5018424;28;20307;-50
2022/05/17 06:49:53;;;;;;;4.37;1.87;;;25.40;99.90;;;;;;5022252;28;20202;-50
2022/05/17 06:52:23;;;;;;;2.43;1.90;;;25.70;99.90;;;;;;5030146;28;20257;-49
2022/05/17 06:54:50;;;;;;;2.20;2.00;;;26.40;99.90;;;;;;5027516;28;20318;-50
2022/05/17 06:57:17;;;;;;;3.63;1.80;;;26.70;99.90;;;;;;5025199;28;20289;-50
2022/05/17 06:59:46;;;;;;;4.33;1.73;;;26.90;99.90;;;;;;5020420;28;20203;-50
2022/05/17 07:02:13;;;;;;;2.45;1.80;;;27.50;99.90;;;;;;5018954;28;20191;-50
2022/05/17 07:04:41;;;;;;;1.50;1.50;;;27.60;99.90;;;;;;5014061;28;20246;-49
2022/05/17 07:07:10;;;;;;;2.20;2.00;;;27.60;99.90;;;;;;5019657;28;20256;-50
2022/05/17 07:09:38;;;;;;;2.42;2.22;;;28.10;99.90;;;;;;5020874;28;20317;-50
2022/05/17 07:14:50;;;;;;;3.75;2.22;;;27.80;99.90;;;;;;5033564;28;20240;-50
2022/05/17 07:17:19;;;;;;;2.35;2.25;;;27.90;99.90;;;;;;5028998;28;20227;-50
2022/05/17 07:19:46;;;;;;;2.17;2.08;;;27.40;99.90;;;;;;5027538;28;20248;-50
2022/05/17 07:22:15;;;;;;;2.10;2.00;;;27.30;99.90;;;;;;5030664;28;20352;-50
2022/05/17 07:24:45;;;;;;;2.25;2.03;;;27.20;99.90;;;;;;5033117;28;20245;-50
2022/05/17 07:27:12;;;;;;;3.03;2.30;;;27.50;99.90;;;;;;5013587;28;20607;-51
2022/05/17 07:29:40;;;;;;;4.00;3.00;;;27.60;99.90;;;;;;5013534;28;20967;-50
2022/05/17 07:32:08;;;;;;;2.97;2.00;;;28.20;99.90;;;;;;5016560;28;20198;-50
2022/05/17 07:34:35;;;;;;;2.53;2.00;;;28.10;99.90;;;;;;5032847;28;20249;-50
2022/05/17 07:37:03;;;;;;;2.05;1.90;;;28.10;99.90;;;;;;5033034;28;20222;-51
2022/05/17 07:39:31;;;;;;;3.08;1.48;;;28.40;99.90;;;;;;5029762;28;20287;-50
2022/05/17 07:41:58;;;;;;;1.90;1.60;;;28.70;99.90;;;;;;5031757;28;20206;-50
2022/05/17 07:44:25;;;;;;;2.25;1.40;;;29.20;99.90;;;;;;5032882;28;20721;-50
2022/05/17 07:46:52;;;;;;;1.45;1.33;;;28.50;99.90;;;;;;5032875;28;20281;-50
2022/05/17 07:49:19;;;;;;;1.77;1.60;;;29.30;99.90;;;;;;5032727;28;20249;-50
2022/05/17 07:51:46;;;;;;;4.15;1.48;;;29.40;99.90;;;;;;5031553;28;20557;-50
2022/05/17 07:54:14;;;;;;;2.03;1.30;;;29.30;99.90;;;;;;5032788;28;20194;-50
2022/05/17 07:56:42;;;;;;;1.50;1.15;;;29.40;99.90;;;;;;5032680;28;20234;-50
2022/05/17 07:59:09;;;;;;;2.00;1.77;;;29.90;99.90;;;;;;5032586;28;20210;-50
2022/05/17 08:01:36;;;;;;;3.05;1.45;;;30.00;99.90;;;;;;5027575;28;20195;-50
2022/05/17 08:04:03;;;;;;;1.55;1.10;;;29.80;99.90;;;;;;5028676;28;20203;-50
2022/05/17 08:06:30;;;;;;;1.25;1.05;;;29.60;99.90;;;;;;5032046;28;20273;-50
2022/05/17 08:08:57;;;;;;;1.73;1.50;;;29.80;99.90;;;;;;5016796;28;20191;-50
2022/05/17 08:11:25;;;;;;;2.38;1.80;;;30.50;99.90;;;;;;5015490;28;20198;-51
2022/05/17 08:13:54;;;;;;;2.53;1.38;;;30.30;99.90;;;;;;5022386;28;20238;-50
2022/05/17 08:16:21;;;;;;;1.25;1.15;;;30.10;99.90;;;;;;5022217;28;20230;-50
2022/05/17 08:18:48;;;;;;;2.15;1.17;;;29.80;99.90;;;;;;5012962;28;20195;-50
2022/05/17 08:21:15;;;;;;;2.38;1.55;;;30.00;99.90;;;;;;5013108;28;20326;-50
2022/05/17 08:23:42;;;;;;;1.80;1.70;;;30.50;99.90;;;;;;5021887;28;20677;-50
2022/05/17 08:28:56;;;;;;;1.35;1.35;;;30.40;99.90;;;;;;5031027;28;20201;-50
2022/05/17 08:31:24;;;;;;;5.28;1.40;;;30.80;99.60;;;;;;5030774;28;20621;-51
2022/05/17 08:33:51;;;;;;;2.00;1.48;;;30.70;99.70;;;;;;5025267;28;20245;-50
2022/05/17 08:36:19;;;;;;;3.17;1.45;;;30.60;99.40;;;;;;5019431;28;20288;-51
2022/05/17 08:38:48;;;;;;;1.35;1.30;;;30.80;99.20;;;;;;5026236;28;20225;-50
2022/05/17 08:41:24;;;;;;;1.73;1.58;;;30.20;98.30;;;;;;5028114;28;20256;-50
2022/05/17 08:43:55;;;;;;;3.08;1.75;;;30.60;99.20;;;;;;5027539;28;20210;-50
2022/05/17 08:46:33;;;;;;;2.83;1.67;;;30.30;99.20;;;;;;5028080;28;20219;-50
2022/05/17 08:49:05;;;;;;;1.45;1.38;;;30.00;99.10;;;;;;5029387;28;20253;-50
2022/05/17 08:51:37;;;;;;;1.77;1.63;;;30.50;96.60;;;;;;5031218;28;20642;-50
2022/05/17 08:54:06;;;;;;;1.40;1.33;;;30.60;97.80;;;;;;5026120;28;20254;-50
2022/05/17 08:56:37;;;;;;;1.35;1.35;;;30.60;98.60;;;;;;5018737;28;20716;-50
2022/05/17 08:59:07;;;;;;;1.55;1.45;;;30.70;98.50;;;;;;5030752;28;20207;-50
2022/05/17 09:01:44;;;;;;;2.08;1.00;;;30.80;96.60;;;;;;5030142;28;20203;-50
2022/05/17 09:04:29;;;;;;;1.20;1.10;;;31.10;96.40;;;;;;5022388;28;20206;-50
2022/05/17 09:07:06;;;;;;;1.70;1.20;;;31.20;98.30;;;;;;5027285;28;20222;-50
2022/05/17 09:09:46;;;;;;;1.38;1.27;;;31.20;97.60;;;;;;5027593;28;20622;-50
2022/05/17 09:12:24;;;;;;;1.65;1.00;;;31.30;97.90;;;;;;5019848;28;20199;-49
2022/05/17 09:14:56;;;;;;;4.10;1.50;;;31.40;97.20;;;;;;5026220;28;20234;-50
2022/05/17 09:17:25;;;;;;;1.77;1.70;;;30.80;96.10;;;;;;5012986;28;20648;-50
2022/05/17 09:19:52;;;;;;;1.20;1.10;;;30.60;96.40;;;;;;5012000;28;20207;-51
2022/05/17 09:22:23;;;;;;;2.53;1.73;;;30.30;97.50;;;;;;5014321;28;20271;-50
2022/05/17 09:24:58;;;;;;;1.77;1.67;;;31.20;97.50;;;;;;5021755;28;20744;-50
2022/05/17 09:27:29;;;;;;;1.65;1.35;;;31.30;96.90;;;;;;5013426;28;20219;-50
2022/05/17 09:30:06;;;;;;;4.03;1.58;;;31.10;97.90;;;;;;5012048;28;20257;-50
2022/05/17 09:32:37;;;;;;;1.98;1.65;;;31.10;97.40;;;;;;5015852;28;20198;-50
2022/05/17 09:35:10;;;;;;;4.15;2.10;;;31.30;95.90;;;;;;5018952;28;20658;-50
2022/05/17 09:37:43;;;;;;;2.40;1.35;;;31.40;95.20;;;;;;5029976;28;20222;-50
2022/05/17 09:40:13;;;;;;;2.33;1.70;;;31.10;95.90;;;;;;5024377;28;20206;-50
2022/05/17 09:42:53;;;;;;;3.45;1.70;;;30.60;97.00;;;;;;5016903;28;20253;-49
2022/05/17 09:45:36;;;;;;;2.38;1.63;;;29.90;96.50;;;;;;5020003;28;20201;-50
2022/05/17 09:48:10;;;;;;;2.47;1.42;;;29.10;96.20;;;;;;5025676;28;20781;-50
2022/05/17 09:53:42;;;;;;;3.00;2.53;;;29.40;98.10;;;;;;5024384;28;20205;-50
2022/05/17 09:56:10;;;;;;;2.20;2.10;;;29.40;97.10;;;;;;5015552;28;20230;-49
2022/05/17 09:58:38;;;;;;;2.67;2.47;;;29.50;97.90;;;;;;5015810;28;20211;-50
2022/05/17 10:01:14;;;;;;;2.90;2.70;;;30.30;96.70;;;;;;5019064;23;20278;-55
2022/05/17 10:03:44;;;;;;;2.15;2.05;;;30.80;96.80;;;;;;4980328;28;20215;-56
2022/05/17 10:06:16;;;;;;;3.92;2.00;;;30.90;97.90;;;;;;4982896;28;20192;-56
2022/05/17 10:08:57;;;;;;;2.47;1.98;;;31.20;95.50;;;;;;4990299;28;20690;-55
2022/05/17 10:11:25;;;;;;;2.53;2.28;;;31.60;97.50;;;;;;4989404;28;20231;-56
2022/05/17 10:14:00;;;;;;;3.92;2.42;;;30.90;96.20;;;;;;4989565;28;20291;-55
2022/05/17 10:16:35;;;;;;;1.63;1.55;;;30.00;96.80;;;;;;4989249;28;20677;-56
2022/05/17 10:19:07;;;;;;;2.22;2.05;;;30.10;95.20;;;;;;4988221;28;20208;-56
2022/05/17 10:21:39;;;;;;;1.98;1.88;;;30.90;94.80;;;;;;4989616;28;20238;-56
2022/05/17 10:24:13;;;;;;;2.95;2.25;;;30.70;93.70;;;;;;4989250;28;20299;-56
2022/05/17 10:26:44;;;;;;;2.28;1.98;;;30.90;92.70;;;;;;4989735;28;20623;-56
2022/05/17 10:29:21;;;;;;;2.83;1.70;;;30.50;94.60;;;;;;4991695;28;20640;-56
2022/05/17 10:31:57;;;;;;;1.35;1.35;;;30.20;93.80;;;;;;4992910;28;20223;-55
2022/05/17 10:34:34;;;;;;;2.08;1.98;;;30.40;94.00;;;;;;4988920;28;20196;-55
2022/05/17 10:37:06;;;;;;;2.15;1.67;;;30.20;94.10;;;;;;4993347;28;20215;-55
2022/05/17 10:39:38;;;;;;;1.90;1.80;;;30.50;93.30;;;;;;4992859;28;20283;-56
2022/05/17 10:42:06;;;;;;;3.58;2.17;;;30.30;93.20;;;;;;4992267;28;20302;-56
2022/05/17 10:44:40;;;;;;;2.25;1.10;;;30.20;95.20;;;;;;4992829;28;20200;-55
2022/05/17 10:47:15;;;;;;;1.48;1.38;;;29.50;94.60;;;;;;4992908;28;20275;-55
2022/05/17 10:49:54;;;;;;;3.05;1.90;;;29.20;95.70;;;;;;4992007;28;20254;-55
2022/05/17 10:52:27;;;;;;;2.33;1.73;;;28.50;96.80;;;;;;4992288;28;20634;-55
2022/05/17 10:55:05;;;;;;;1.83;1.70;;;28.00;95.80;;;;;;4990761;28;20289;-55
2022/05/17 10:57:45;;;;;;;2.45;2.25;;;27.80;95.70;;;;;;4990159;28;20697;-55
2022/05/17 11:00:18;;;;;;;4.77;2.20;;;27.40;98.30;;;;;;4992421;28;20596;-55
2022/05/17 11:03:20;;;;;;;1.92;1.85;;;27.10;96.60;;;;;;4990704;28;20196;-55
2022/05/17 11:06:02;;;;;;;1.83;1.63;;;27.00;99.20;;;;;;4989133;28;20227;-55
2022/05/17 11:08:39;;;;;;;3.87;2.03;;;27.00;98.80;;;;;;4990832;28;20670;-55
2022/05/17 11:11:24;;;;;;;2.90;2.23;;;27.10;98.70;;;;;;4990398;28;20330;-55
2022/05/17 11:13:56;;;;;;;4.73;1.80;;;27.20;97.90;;;;;;4992392;28;20307;-56
2022/05/17 11:16:30;;;;;;;2.00;1.90;;;27.30;98.00;;;;;;4992160;28;20212;-55
2022/05/17 11:19:03;;;;;;;2.33;2.13;;;27.00;99.10;;;;;;4991092;28;20666;-55
2022/05/17 11:21:34;;;;;;;5.67;2.13;;;26.60;98.90;;;;;;4987372;28;20228;-56
2022/05/17 11:24:14;;;;;;;2.37;1.80;;;26.60;98.40;;;;;;4989853;28;20270;-55
2022/05/17 11:27:11;;;;;;;2.10;2.00;;;26.50;99.30;;;;;;4978869;28;20203;-55
2022/05/17 11:30:12;;;;;;;3.60;2.07;;;26.30;99.50;;;;;;4990013;28;20254;-55
2022/05/17 11:32:42;;;;;;;1.70;1.60;;;26.40;98.60;;;;;;4985611;28;20629;-55
2022/05/17 11:35:39;;;;;;;3.37;1.27;;;26.40;98.90;;;;;;4993288;28;20756;-55
2022/05/17 11:38:08;;;;;;;3.70;2.73;;;26.10;99.70;;;;;;4990763;28;20196;-55
2022/05/17 11:40:56;;;;;;;1.93;1.83;;;26.00;99.40;;;;;;4993553;28;20232;-55
2022/05/17 11:43:43;;;;;;;3.67;2.20;;;26.10;99.90;;;;;;4984247;28;20240;-55
2022/05/17 11:46:47;;;;;;;2.07;1.97;;;26.40;99.90;;;;;;4986056;28;20215;-55
2022/05/17 11:49:45;;;;;;;3.10;2.50;;;26.30;99.60;;;;;;4985642;28;20204;-55
2022/05/17 11:52:34;;;;;;;2.60;1.90;;;26.20;98.00;;;;;;4989329;28;20196;-55
2022/05/17 11:55:05;;;;;;;3.03;1.83;;;26.20;99.90;;;;;;4992861;28;20203;-56
2022/05/17 11:58:08;;;;;;;2.40;2.13;;;26.30;99.20;;;;;;4992144;28;20321;-55
2022/05/17 12:00:45;;;;;;;1.83;1.40;;;26.40;98.60;;;;;;4998187;28;20254;-55
2022/05/17 12:03:54;;;;;;;3.60;1.80;;;26.40;96.60;;;;;;4996576;28;20208;-55
2022/05/17 12:06:36;;;;;;;2.47;1.53;;;26.30;98.70;;;;;;4986261;28;20211;-55
2022/05/17 12:09:11;;;;;;;4.30;2.13;;;26.50;97.90;;;;;;4999959;28;20733;-55
2022/05/17 12:11:53;;;;;;;2.40;1.57;;;26.40;99.20;;;;;;5000165;28;20226;-55
2022/05/17 12:14:26;;;;;;;2.50;1.73;;;26.40;98.20;;;;;;4987795;28;20776;-55
2022/05/17 12:16:58;;;;;;;1.57;1.47;;;26.60;99.20;;;;;;4982223;28;20339;-56
2022/05/17 12:19:32;;;;;;;3.00;1.77;;;26.50;99.40;;;;;;4973553;28;20205;-54
2022/05/17 12:22:08;;;;;;;2.80;1.85;;;26.40;97.70;;;;;;4980081;28;20592;-55
2022/05/17 12:24:52;;;;;;;4.67;2.10;;;26.20;99.90;;;;;;4982189;28;20200;-55
2022/05/17 12:27:23;;;;;;;3.53;1.93;;;26.30;98.70;;;;;;4973507;28;20196;-55
2022/05/17 12:32:49;;;;;;;2.10;1.93;;;25.90;99.90;;;;;;4981574;28;20213;-55
2022/05/17 12:35:24;;;;;;;2.47;2.03;;;25.80;99.90;;;;;;4984853;28;20204;-55
2022/05/17 12:37:51;;;;;;;3.23;1.80;;;25.80;99.90;;;;;;4977574;28;20278;-55
2022/05/17 12:43:11;;;;;;;5.33;1.73;;;25.90;99.90;;;;;;4979765;28;20354;-55
2022/05/17 12:45:42;;;;;;;1.93;1.73;;;25.80;99.90;;;;;;4972955;28;20204;-55
2022/05/17 12:48:18;;;;;;;1.57;1.30;;;25.60;98.70;;;;;;4973145;28;20205;-55
2022/05/17 12:50:49;;;;;;;2.20;1.80;;;25.50;99.00;;;;;;4985893;28;20306;-55
2022/05/17 12:53:21;;;;;;;4.37;2.47;;;25.50;99.90;;;;;;4991871;28;20219;-55
2022/05/17 12:56:08;;;;;;;3.83;1.30;;;25.60;99.80;;;;;;4991993;28;20211;-55
2022/05/17 12:58:37;;;;;;;4.87;2.33;;;25.50;99.30;;;;;;4991966;28;20576;-55
2022/05/17 13:01:07;;;;;;;3.13;2.93;;;25.50;99.90;;;;;;4991702;28;20612;-55
2022/05/17 13:03:34;;;;;;;3.03;2.33;;;25.50;99.90;;;;;;4990711;28;20204;-55
2022/05/17 13:06:06;;;;;;;2.63;2.43;;;25.60;99.90;;;;;;4972574;28;20204;-55
2022/05/17 13:08:37;;;;;;;1.40;1.30;;;25.60;99.90;;;;;;4972775;28;20271;-56
2022/05/17 13:11:13;;;;;;;3.70;1.60;;;25.60;99.80;;;;;;4972371;28;20597;-55
2022/05/17 13:13:42;;;;;;;2.30;2.10;;;25.50;99.00;;;;;;4972329;28;20204;-55
2022/05/17 13:16:14;;;;;;;2.00;1.90;;;25.30;99.90;;;;;;4985676;28;20238;-55
2022/05/17 13:18:45;;;;;;;3.23;2.10;;;25.30;99.90;;;;;;4991716;28;20211;-55
2022/05/17 13:21:21;;;;;;;2.37;2.17;;;25.30;99.90;;;;;;4988104;28;20227;-54
2022/05/17 13:23:49;;;;;;;2.80;1.90;;;25.20;99.90;;;;;;4988078;28;20711;-55
2022/05/17 13:26:26;;;;;;;4.40;2.23;;;25.40;99.90;;;;;;4987391;28;20254;-55